Lecompton, Kansas
Current Conditions -  °F | °C
As of 2:52 AM on Friday 24 Oct 2014 (Local Time) from KLWC Reporting Station
Haze Haze  
Wind Chill: 55°   Ceiling: Unl
Heat Index: 55°   Visibility: 2.5mi
Dew Point: 54°   Wind: 0mph
Humidity: 96%   Direction: NA
Pressure: 30.08"   Gusts: NA
Location:  39.04°N, 95.39°W
Report Text: KLWC 240752Z AUTO 00000KT 2 1/2SM BR FEW007 13/12 A3008 RMK AO2 SLP182 T01280122
Loading
Personal Weather Stations






























Interactive Weather Map
Tropical Storm Tracking
New forecast layout! Learn more

10-Day Weather Forecast

Advertisements
Track Severe Weather on mobile